Aviation Digital Data Service (ADDS)

Output produced by METARs form (1442 UTC 19 April 2019)
found at http://www.aviationweather.gov/metar/data/
 
Forecast for: EGKK (LONDON/GATWICK A, GB)
Text: TAF EGKK 191102Z 1912/2018 05008KT CAVOK
Forecast period: 1200 UTC 19 April 2019 to 0000 UTC 20 April 2019
Forecast type: FROM: standard forecast or significant change
Winds: from the NE (50 degrees) at 9 MPH (8 knots; 4.1 m/s)
Visibility: 6 or more miles 10+ km)
Ceiling: unknown
Clouds: missing
Weather: NSW  (no significant weather)
Text: BECMG 2000/2003 7000
Forecast period: 0000 to 0600 UTC 20 April 2019
Forecast type: BECOMING: Conditions expected to become as follows by 0300 UTC 20 April 2019
Winds: from the NE (50 degrees) at 9 MPH (8 knots; 4.1 m/s)
Visibility: 4 miles (7 km)
Ceiling: unknown
Clouds: missing
Weather: NSW  (no significant weather)
Text: BECMG 2006/2009 CAVOK
Forecast period: 0600 to 1800 UTC 20 April 2019
Forecast type: BECOMING: Conditions expected to become as follows by 0900 UTC 20 April 2019
Winds: from the NE (50 degrees) at 9 MPH (8 knots; 4.1 m/s)
Visibility: 6 or more miles 10+ km)
Ceiling: unknown
Clouds: missing
Weather: NSW  (no significant weather)